Time;durP1;ratioP1;P1;durP2;ratioP2;P2;SDS_P1;SDS_P2;PMS_P1;PMS_P2;Temp;Humidity;BMP_temperature;BMP_pressure;BME280_temperature;BME280_humidity;BME280_pressure;Samples;Min_cycle;Max_cycle;Signal;HPM_P1;HPM_P2
2023/10/12 00:01:57;;;;;;;80.10;75.37;;;19.90;99.90;;;;;;4959673;28;20393;-72
2023/10/12 00:04:27;;;;;;;82.80;77.75;;;19.80;99.90;;;;;;4969014;28;20053;-72
2023/10/12 00:06:54;;;;;;;122.13;115.20;;;19.90;99.90;;;;;;4961558;28;20059;-72
2023/10/12 00:09:25;;;;;;;83.70;78.75;;;19.90;99.90;;;;;;4956069;28;20031;-72
2023/10/12 00:11:58;;;;;;;92.85;87.18;;;19.90;99.90;;;;;;4969131;28;20050;-72
2023/10/12 00:14:32;;;;;;;77.13;72.43;;;19.90;99.90;;;;;;4974537;28;20055;-72
2023/10/12 00:16:58;;;;;;;85.25;79.95;;;20.00;99.90;;;;;;4958994;28;20508;-72
2023/10/12 00:19:25;;;;;;;76.93;72.13;;;19.90;99.90;;;;;;4953994;28;20047;-70
2023/10/12 00:21:56;;;;;;;68.05;63.22;;;19.90;99.90;;;;;;4942486;29;20069;-70
2023/10/12 00:24:22;;;;;;;83.18;78.15;;;19.90;99.90;;;;;;4941059;28;20377;-70
2023/10/12 00:26:49;;;;;;;76.60;71.88;;;19.90;99.90;;;;;;4974040;28;20041;-70
2023/10/12 00:29:15;;;;;;;96.30;90.72;;;19.90;99.90;;;;;;4989360;28;20031;-70
2023/10/12 00:31:43;;;;;;;78.13;73.00;;;19.90;99.90;;;;;;4973446;28;20039;-70
2023/10/12 00:34:12;;;;;;;114.07;107.25;;;19.90;99.90;;;;;;4958716;28;20035;-70
2023/10/12 00:36:41;;;;;;;109.28;102.65;;;19.90;99.90;;;;;;4964592;28;20055;-70
2023/10/12 00:39:11;;;;;;;94.68;89.07;;;19.90;99.90;;;;;;4973259;28;20026;-70
2023/10/12 00:41:37;;;;;;;96.05;90.30;;;19.90;99.90;;;;;;4972496;28;20380;-71
2023/10/12 00:46:40;;;;;;;105.82;99.40;;;19.90;99.90;;;;;;4973649;28;20412;-70
2023/10/12 00:51:51;;;;;;;103.25;96.90;;;19.80;99.90;;;;;;4978551;28;20043;-70
2023/10/12 00:54:32;;;;;;;93.10;87.55;;;19.80;99.90;;;;;;4972981;28;20069;-70
2023/10/12 00:57:11;;;;;;;95.13;89.50;;;19.90;99.90;;;;;;4972453;28;20389;-70
2023/10/12 00:59:37;;;;;;;97.95;91.97;;;19.90;99.90;;;;;;4957670;28;20039;-70
2023/10/12 01:02:11;;;;;;;115.63;108.38;;;19.90;99.90;;;;;;4967791;28;20031;-70
2023/10/12 01:04:41;;;;;;;122.40;115.28;;;19.90;99.90;;;;;;4957098;28;20047;-70
2023/10/12 01:07:10;;;;;;;126.82;119.72;;;19.90;99.90;;;;;;4957751;28;20388;-70
2023/10/12 01:09:39;;;;;;;142.23;134.35;;;19.90;99.90;;;;;;4953191;28;20019;-71
2023/10/12 01:12:14;;;;;;;120.40;113.25;;;19.90;99.90;;;;;;4967172;28;20042;-70
2023/10/12 01:14:47;;;;;;;116.97;109.70;;;19.90;99.90;;;;;;4972644;28;20401;-71
2023/10/12 01:17:17;;;;;;;131.63;123.85;;;19.90;99.90;;;;;;4972678;28;20546;-70
2023/10/12 01:19:47;;;;;;;124.43;116.80;;;19.90;99.90;;;;;;4973488;28;20034;-70
2023/10/12 01:22:13;;;;;;;120.07;112.75;;;19.90;99.90;;;;;;4971312;28;20054;-70
2023/10/12 01:27:16;;;;;;;127.43;119.97;;;20.00;99.90;;;;;;4961492;28;20028;-70
2023/10/12 01:29:43;;;;;;;148.93;140.05;;;19.90;99.90;;;;;;4961181;28;20499;-70
2023/10/12 01:34:38;;;;;;;160.00;150.98;;;19.90;99.90;;;;;;4956773;28;20070;-70
2023/10/12 01:37:20;;;;;;;160.90;151.85;;;19.90;99.90;;;;;;4968209;28;20051;-72
2023/10/12 01:39:56;;;;;;;161.25;152.20;;;19.90;99.90;;;;;;4954104;28;20047;-72
2023/10/12 01:42:35;;;;;;;153.60;145.07;;;19.90;99.90;;;;;;4953914;28;20047;-72
2023/10/12 01:45:04;;;;;;;161.30;152.20;;;19.90;99.90;;;;;;4955231;28;20043;-72
2023/10/12 01:47:36;;;;;;;160.35;151.50;;;19.90;99.90;;;;;;4971888;28;20043;-72
2023/10/12 01:50:06;;;;;;;144.93;136.38;;;19.90;99.90;;;;;;4962363;28;20392;-72
2023/10/12 01:52:34;;;;;;;155.90;146.60;;;19.90;99.90;;;;;;4962970;28;20530;-72
2023/10/12 01:55:00;;;;;;;151.45;142.70;;;19.80;99.90;;;;;;4957988;28;20063;-72
2023/10/12 01:57:30;;;;;;;154.02;145.13;;;19.80;99.90;;;;;;4954786;28;20473;-72
2023/10/12 01:59:58;;;;;;;155.02;146.15;;;19.80;99.90;;;;;;4957236;28;20480;-72
2023/10/12 02:02:24;;;;;;;173.68;163.40;;;19.80;99.90;;;;;;4960014;28;20043;-72
2023/10/12 02:04:51;;;;;;;170.82;160.70;;;19.80;99.90;;;;;;4964489;28;20039;-72
2023/10/12 02:07:17;;;;;;;192.60;181.68;;;19.80;99.90;;;;;;4973063;28;20058;-72
2023/10/12 02:09:44;;;;;;;188.57;177.70;;;19.80;99.90;;;;;;4960227;28;20395;-72
2023/10/12 02:12:12;;;;;;;190.02;179.60;;;19.80;99.90;;;;;;4969124;28;20049;-72
2023/10/12 02:14:41;;;;;;;183.38;172.93;;;19.80;99.90;;;;;;4967274;28;20054;-72
2023/10/12 02:17:08;;;;;;;185.02;174.77;;;19.80;99.90;;;;;;4964214;28;20040;-73
2023/10/12 02:19:44;;;;;;;186.48;176.30;;;19.80;99.90;;;;;;4953870;29;20030;-72
2023/10/12 02:22:23;;;;;;;180.65;170.85;;;19.80;99.90;;;;;;4971038;28;20050;-72
2023/10/12 02:27:34;;;;;;;173.00;163.23;;;19.80;99.90;;;;;;4974035;28;20042;-73
2023/10/12 02:30:00;;;;;;;171.63;161.85;;;19.90;99.90;;;;;;4976680;28;20035;-72
2023/10/12 02:32:26;;;;;;;172.52;162.55;;;19.90;99.90;;;;;;4972594;28;20511;-72
2023/10/12 02:35:00;;;;;;;172.93;163.30;;;19.90;99.90;;;;;;4957412;29;20050;-72
2023/10/12 02:37:28;;;;;;;179.15;169.00;;;19.90;99.90;;;;;;4957091;28;20047;-72
2023/10/12 02:39:54;;;;;;;168.00;158.45;;;19.90;99.90;;;;;;4957610;28;20507;-72
2023/10/12 02:42:38;;;;;;;183.50;173.32;;;19.90;99.90;;;;;;4974124;28;20033;-72
2023/10/12 02:47:45;;;;;;;167.73;158.25;;;19.90;99.90;;;;;;4979018;28;20031;-72
2023/10/12 02:52:38;;;;;;;187.88;177.48;;;19.90;99.90;;;;;;4965382;28;20043;-72
2023/10/12 02:55:24;;;;;;;190.63;179.85;;;19.90;99.90;;;;;;4966394;28;20046;-70
2023/10/12 02:57:55;;;;;;;180.90;170.40;;;19.90;99.90;;;;;;4973540;28;20031;-70
2023/10/12 03:00:23;;;;;;;167.18;157.77;;;19.80;99.90;;;;;;4973915;28;20107;-70
2023/10/12 03:02:53;;;;;;;180.40;170.40;;;19.70;99.90;;;;;;4975447;28;20019;-70
2023/10/12 03:05:31;;;;;;;173.65;163.68;;;19.80;99.90;;;;;;4974135;28;20035;-70
2023/10/12 03:08:05;;;;;;;180.88;170.80;;;19.80;99.90;;;;;;4975821;28;20030;-70
2023/10/12 03:10:31;;;;;;;180.40;169.88;;;19.80;99.90;;;;;;4974660;28;20037;-70
2023/10/12 03:13:04;;;;;;;180.30;170.23;;;19.80;99.90;;;;;;4975859;28;20375;-70
2023/10/12 03:15:56;;;;;;;173.82;163.40;;;19.80;99.90;;;;;;4974482;28;20043;-70
2023/10/12 03:18:19;;;;;;;181.00;170.63;;;19.80;99.90;;;;;;4975555;28;20043;-70
2023/10/12 03:21:00;;;;;;;181.02;171.18;;;19.80;99.90;;;;;;4969364;28;20027;-70
2023/10/12 03:23:27;;;;;;;193.75;183.10;;;19.80;99.90;;;;;;4956349;29;20503;-70
2023/10/12 03:25:53;;;;;;;192.38;181.60;;;19.80;99.90;;;;;;4956342;28;20039;-70
2023/10/12 03:28:36;;;;;;;189.82;179.10;;;19.70;99.90;;;;;;4954390;29;20058;-70
2023/10/12 03:32:04;;;;;;;187.85;177.43;;;19.80;99.90;;;;;;4959844;28;20403;-70
2023/10/12 03:33:57;;;;;;;183.77;173.60;;;19.80;99.90;;;;;;4965920;28;20054;-70
2023/10/12 03:36:25;;;;;;;200.15;188.90;;;19.80;99.90;;;;;;4965301;28;20496;-70
2023/10/12 03:41:46;;;;;;;191.63;180.40;;;19.80;99.90;;;;;;4934609;29;20095;-70
2023/10/12 03:44:18;;;;;;;183.82;173.05;;;19.70;99.90;;;;;;4918462;29;20401;-70
2023/10/12 03:46:57;;;;;;;179.68;169.25;;;19.70;99.90;;;;;;4924008;29;20034;-70
2023/10/12 03:51:59;;;;;;;180.70;170.88;;;19.60;99.90;;;;;;4938424;28;20542;-70
2023/10/12 03:54:28;;;;;;;183.90;173.80;;;19.60;99.90;;;;;;4952709;29;20042;-70
2023/10/12 03:59:52;;;;;;;178.85;169.02;;;19.70;99.90;;;;;;4935888;29;20055;-70
2023/10/12 04:02:18;;;;;;;172.50;162.40;;;19.60;99.90;;;;;;4919203;29;20563;-72
2023/10/12 04:05:00;;;;;;;182.70;172.45;;;19.60;99.90;;;;;;4950729;29;20047;-72
2023/10/12 04:18:40;;;;;;;180.52;170.40;;;19.60;99.90;;;;;;4923978;29;20048;-72
2023/10/12 04:21:07;;;;;;;182.05;171.50;;;19.70;99.90;;;;;;4933478;29;20051;-72
2023/10/12 04:26:37;;;;;;;181.63;171.32;;;19.60;99.90;;;;;;4934526;29;20036;-72
2023/10/12 04:28:54;;;;;;;184.15;173.93;;;19.60;99.90;;;;;;4933510;29;20040;-72
2023/10/12 04:31:21;;;;;;;183.95;173.93;;;19.60;99.90;;;;;;4933903;29;20043;-72
2023/10/12 04:36:25;;;;;;;178.80;168.25;;;19.60;99.90;;;;;;4957935;28;20050;-72
2023/10/12 04:39:15;;;;;;;184.10;174.23;;;19.50;99.90;;;;;;4952655;29;20090;-72
2023/10/12 04:47:05;;;;;;;189.23;179.00;;;19.50;99.90;;;;;;4955887;28;20507;-72
2023/10/12 04:57:16;;;;;;;152.82;144.02;;;19.40;99.90;;;;;;4970349;28;20027;-72
2023/10/12 05:00:00;;;;;;;152.05;142.90;;;19.40;99.90;;;;;;4974139;28;20051;-72
2023/10/12 05:02:41;;;;;;;153.68;144.05;;;19.40;99.90;;;;;;4955094;28;20050;-72
2023/10/12 05:07:54;;;;;;;151.27;142.80;;;19.40;99.90;;;;;;4957141;28;20035;-72
2023/10/12 05:10:31;;;;;;;156.65;147.40;;;19.30;99.90;;;;;;4956461;28;20047;-72
2023/10/12 05:13:05;;;;;;;156.93;147.60;;;19.40;99.90;;;;;;4973931;28;20043;-72
2023/10/12 05:16:32;;;;;;;165.13;155.88;;;19.30;99.90;;;;;;4955354;28;20047;-73
2023/10/12 05:18:27;;;;;;;158.93;149.68;;;19.40;99.90;;;;;;4950181;28;20050;-72
2023/10/12 05:20:53;;;;;;;149.00;140.30;;;19.30;99.90;;;;;;4948182;29;20040;-72
2023/10/12 05:23:19;;;;;;;137.32;129.00;;;19.30;99.90;;;;;;4934888;29;20044;-72
2023/10/12 05:28:30;;;;;;;142.45;133.98;;;19.20;99.90;;;;;;4941682;29;20058;-73
2023/10/12 05:31:09;;;;;;;144.13;135.43;;;19.20;99.90;;;;;;4934420;28;20058;-69
2023/10/12 05:36:13;;;;;;;135.43;127.25;;;19.20;99.90;;;;;;4939931;28;20043;-70
2023/10/12 05:38:39;;;;;;;137.15;129.23;;;19.20;99.90;;;;;;4935368;29;20024;-72
2023/10/12 05:41:10;;;;;;;133.15;125.20;;;19.20;99.90;;;;;;4944866;29;20027;-70
2023/10/12 05:43:39;;;;;;;119.85;112.47;;;19.20;99.90;;;;;;4935093;29;20020;-69
2023/10/12 05:46:10;;;;;;;127.60;119.82;;;19.20;99.90;;;;;;4940092;29;20035;-70
2023/10/12 05:48:41;;;;;;;129.23;121.15;;;19.20;99.90;;;;;;4952949;29;20054;-69
2023/10/12 05:51:10;;;;;;;125.35;117.65;;;19.10;99.90;;;;;;4953020;28;20035;-70
2023/10/12 05:53:37;;;;;;;131.35;123.00;;;19.10;99.90;;;;;;4953570;29;20031;-69
2023/10/12 05:56:06;;;;;;;129.02;121.00;;;19.10;99.90;;;;;;4936539;29;20054;-69
2023/10/12 05:58:34;;;;;;;121.10;113.53;;;19.10;99.90;;;;;;4939934;28;20059;-70
2023/10/12 06:01:08;;;;;;;125.80;118.10;;;19.10;99.90;;;;;;4939856;28;20035;-69
2023/10/12 06:03:39;;;;;;;133.95;126.03;;;19.10;99.90;;;;;;4972043;28;20035;-69
2023/10/12 06:06:09;;;;;;;131.40;123.18;;;19.10;99.90;;;;;;4954667;29;20023;-70
2023/10/12 06:08:37;;;;;;;121.57;114.07;;;19.10;99.90;;;;;;4951600;29;20503;-69
2023/10/12 06:11:04;;;;;;;119.55;111.97;;;19.10;99.90;;;;;;4955595;29;20066;-70
2023/10/12 06:13:40;;;;;;;114.47;107.68;;;19.00;99.90;;;;;;4956334;29;20019;-70
2023/10/12 06:16:15;;;;;;;117.47;109.93;;;19.00;99.90;;;;;;4955093;28;20043;-70
2023/10/12 06:18:44;;;;;;;107.15;100.45;;;19.00;99.90;;;;;;4967085;28;20034;-70
2023/10/12 06:21:24;;;;;;;129.18;120.90;;;19.10;99.90;;;;;;4964758;28;20403;-69
2023/10/12 06:23:50;;;;;;;104.68;97.93;;;19.10;99.90;;;;;;4972647;28;20044;-69
2023/10/12 06:26:29;;;;;;;107.47;100.38;;;19.10;99.90;;;;;;4976208;28;20027;-69
2023/10/12 06:28:58;;;;;;;111.18;104.07;;;19.10;99.90;;;;;;4964405;28;20023;-70
2023/10/12 06:31:29;;;;;;;97.32;90.95;;;19.10;99.90;;;;;;4961360;28;20039;-72
2023/10/12 06:34:00;;;;;;;111.93;104.40;;;19.10;99.90;;;;;;4957211;28;20108;-72
2023/10/12 06:36:38;;;;;;;102.88;96.15;;;19.10;99.90;;;;;;4956730;28;20047;-69
2023/10/12 06:44:27;;;;;;;87.30;80.97;;;19.10;99.90;;;;;;4972328;28;20047;-72
2023/10/12 06:46:54;;;;;;;93.13;86.60;;;19.10;99.90;;;;;;4972085;28;20035;-72
2023/10/12 06:49:29;;;;;;;91.63;85.00;;;19.10;99.90;;;;;;4975648;28;20043;-72
2023/10/12 06:52:01;;;;;;;94.88;88.45;;;19.10;99.90;;;;;;4974464;28;20043;-72
2023/10/12 06:54:32;;;;;;;98.82;92.00;;;19.10;99.90;;;;;;4975715;28;20031;-72
2023/10/12 06:57:44;;;;;;;;;;;19.10;99.90;;;;;;4967267;28;20035;-72
2023/10/12 07:02:27;;;;;;;122.80;115.18;;;19.10;99.90;;;;;;4974408;28;20042;-72
2023/10/12 07:04:57;;;;;;;122.53;114.68;;;19.20;99.90;;;;;;4990331;28;20061;-72
2023/10/12 07:07:41;;;;;;;119.57;112.22;;;19.20;99.90;;;;;;4974138;28;20043;-72
2023/10/12 07:12:44;;;;;;;108.32;101.18;;;19.20;99.90;;;;;;4981320;28;20035;-72
2023/10/12 07:15:11;;;;;;;106.45;99.43;;;19.20;99.90;;;;;;4961154;28;20042;-72
2023/10/12 07:17:37;;;;;;;103.32;96.13;;;19.30;99.90;;;;;;4968883;28;20065;-72
2023/10/12 07:20:25;;;;;;;100.50;93.65;;;19.30;99.90;;;;;;4975859;28;20024;-72
2023/10/12 07:22:51;;;;;;;113.28;105.80;;;19.30;99.90;;;;;;4974841;28;20073;-72
2023/10/12 07:25:22;;;;;;;120.88;113.15;;;19.30;99.90;;;;;;4975484;28;20041;-72
2023/10/12 07:27:51;;;;;;;124.78;117.10;;;19.30;99.90;;;;;;4973859;28;20039;-72
2023/10/12 07:33:04;;;;;;;;;;;19.50;99.90;;;;;;4972097;28;20026;-72
2023/10/12 07:35:41;;;;;;;123.53;115.53;;;19.50;99.90;;;;;;4965408;28;19922;-72
2023/10/12 07:38:25;;;;;;;120.05;112.47;;;19.60;99.90;;;;;;4957970;28;20527;-72
2023/10/12 07:43:20;;;;;;;163.68;153.90;;;20.00;99.90;;;;;;4972905;28;20415;-72
2023/10/12 07:45:49;;;;;;;166.00;155.88;;;20.20;99.90;;;;;;4955276;28;20392;-72
2023/10/12 07:48:32;;;;;;;155.40;146.50;;;20.40;99.90;;;;;;4954607;28;20476;-72
2023/10/12 07:51:15;;;;;;;186.43;175.73;;;20.60;99.90;;;;;;4955325;28;20035;-72
2023/10/12 07:53:56;;;;;;;169.02;158.98;;;20.80;99.90;;;;;;4968785;28;20035;-70
2023/10/12 07:56:23;;;;;;;182.10;171.50;;;21.00;99.90;;;;;;4969073;28;20404;-70
2023/10/12 07:59:14;;;;;;;178.23;167.77;;;21.10;99.90;;;;;;4971901;28;20498;-70
2023/10/12 08:01:39;;;;;;;199.30;187.43;;;21.20;99.90;;;;;;4954923;28;20063;-70
2023/10/12 08:04:19;;;;;;;194.30;182.93;;;21.10;99.90;;;;;;4959326;28;20024;-70
2023/10/12 08:06:45;;;;;;;195.43;183.73;;;21.10;99.90;;;;;;4954889;28;20038;-70
2023/10/12 08:11:53;;;;;;;200.02;188.45;;;21.30;99.90;;;;;;4978574;28;20399;-69
2023/10/12 08:19:39;;;;;;;202.13;191.20;;;21.40;99.90;;;;;;4968918;28;20047;-70
2023/10/12 08:22:17;;;;;;;195.82;184.90;;;21.50;99.90;;;;;;4968261;28;20042;-70
2023/10/12 08:24:45;;;;;;;186.48;175.63;;;21.50;99.90;;;;;;4969849;28;20373;-70
2023/10/12 08:27:13;;;;;;;196.83;185.20;;;21.50;99.90;;;;;;4953781;28;20055;-70
2023/10/12 08:39:49;;;;;;;146.38;137.23;;;21.80;99.90;;;;;;4955292;28;20031;-71
2023/10/12 08:45:15;;;;;;;137.00;129.00;;;21.80;99.90;;;;;;4968543;28;19917;-71
2023/10/12 08:47:48;;;;;;;180.80;170.48;;;21.90;99.90;;;;;;4956662;28;20368;-70
2023/10/12 08:51:08;;;;;;;192.38;181.52;;;21.80;99.90;;;;;;4968564;28;20042;-70
2023/10/12 08:53:03;;;;;;;229.73;216.38;;;21.80;99.90;;;;;;4969738;28;20039;-70
2023/10/12 08:55:31;;;;;;;245.23;231.20;;;21.70;99.90;;;;;;4973052;28;20039;-70
2023/10/12 08:58:25;;;;;;;245.95;232.32;;;21.80;99.90;;;;;;4960713;28;20054;-70
2023/10/12 09:03:29;;;;;;;234.35;221.25;;;21.80;99.90;;;;;;4972534;28;20027;-71
2023/10/12 09:05:55;;;;;;;228.52;216.10;;;21.80;99.90;;;;;;4965822;28;20492;-71
2023/10/12 09:11:03;;;;;;;253.25;239.65;;;21.70;99.90;;;;;;4964590;28;20035;-71
2023/10/12 09:13:45;;;;;;;247.50;234.32;;;21.70;99.90;;;;;;4966052;28;20391;-70
2023/10/12 09:16:11;;;;;;;245.70;232.40;;;21.70;99.90;;;;;;4972088;28;20167;-71
2023/10/12 09:18:44;;;;;;;212.82;201.50;;;21.60;99.90;;;;;;4954271;28;20507;-70
2023/10/12 09:24:07;;;;;;;195.00;184.45;;;21.60;99.90;;;;;;4979000;28;20491;-70
2023/10/12 09:26:34;;;;;;;198.15;187.45;;;21.60;99.90;;;;;;4962382;28;20393;-70
2023/10/12 09:29:11;;;;;;;211.98;200.43;;;21.50;99.90;;;;;;4954453;28;20050;-70
2023/10/12 09:36:53;;;;;;;217.10;205.60;;;21.50;99.90;;;;;;4969131;28;20042;-70
2023/10/12 09:39:24;;;;;;;207.35;196.25;;;21.50;99.90;;;;;;4972410;28;20035;-70
2023/10/12 09:41:59;;;;;;;217.32;205.45;;;21.50;99.90;;;;;;4964717;28;20042;-71
2023/10/12 09:44:35;;;;;;;226.95;214.90;;;21.50;99.90;;;;;;4970640;28;20035;-70
2023/10/12 09:47:08;;;;;;;229.85;217.38;;;21.50;99.90;;;;;;4956587;28;20522;-70
2023/10/12 09:49:37;;;;;;;210.20;198.95;;;21.40;99.90;;;;;;4972542;28;20055;-70
2023/10/12 09:52:13;;;;;;;200.13;189.05;;;21.40;99.90;;;;;;4962088;28;20043;-70
2023/10/12 09:54:57;;;;;;;233.13;219.93;;;21.40;99.90;;;;;;4937687;29;20051;-70
2023/10/12 09:57:26;;;;;;;219.05;207.20;;;21.50;99.90;;;;;;4962378;28;20535;-70
2023/10/12 09:59:53;;;;;;;244.73;231.52;;;21.60;99.90;;;;;;4973299;28;20051;-70
2023/10/12 10:02:28;;;;;;;196.43;185.63;;;21.70;99.90;;;;;;4961736;28;20039;-70
2023/10/12 10:05:05;;;;;;;205.63;194.57;;;21.70;99.90;;;;;;4972744;28;20146;-70
2023/10/12 10:07:36;;;;;;;210.20;198.68;;;21.70;99.90;;;;;;4954319;28;20412;-70
2023/10/12 10:10:05;;;;;;;236.30;223.48;;;21.80;99.90;;;;;;4937019;29;20049;-70
2023/10/12 10:12:42;;;;;;;232.38;219.88;;;21.80;99.90;;;;;;4953589;28;20054;-69
2023/10/12 10:15:18;;;;;;;214.85;202.95;;;21.90;99.90;;;;;;4952732;28;20043;-70
2023/10/12 10:17:48;;;;;;;251.05;237.32;;;21.90;99.90;;;;;;4954148;28;20063;-70
2023/10/12 10:22:56;;;;;;;226.20;213.70;;;22.10;99.90;;;;;;4969899;28;20043;-70
2023/10/12 10:25:33;;;;;;;223.45;211.93;;;22.20;99.90;;;;;;4970642;28;20027;-70
2023/10/12 10:28:10;;;;;;;243.00;230.35;;;22.20;99.90;;;;;;4961652;28;20035;-70
2023/10/12 10:30:41;;;;;;;233.30;221.25;;;22.20;99.90;;;;;;4966593;28;20046;-70
2023/10/12 10:33:14;;;;;;;226.00;214.15;;;22.20;99.90;;;;;;4967353;28;20046;-70
2023/10/12 10:36:24;;;;;;;229.07;217.60;;;22.20;99.90;;;;;;4967638;28;20135;-70
2023/10/12 10:38:53;;;;;;;227.00;214.67;;;22.30;99.90;;;;;;4953673;29;20038;-71
2023/10/12 10:41:38;;;;;;;263.33;249.48;;;22.30;99.90;;;;;;4951967;28;20023;-70
2023/10/12 10:44:23;;;;;;;262.00;248.15;;;22.30;99.90;;;;;;4958013;28;20039;-70
2023/10/12 10:46:54;;;;;;;232.32;220.23;;;22.30;99.90;;;;;;4962366;28;20047;-70
2023/10/12 10:49:20;;;;;;;251.10;238.27;;;22.30;99.90;;;;;;4962106;28;20031;-70
2023/10/12 10:54:38;;;;;;;252.57;239.48;;;22.40;99.90;;;;;;4981128;28;20031;-70
2023/10/12 10:57:14;;;;;;;248.32;235.38;;;22.40;99.90;;;;;;4964851;28;20046;-70
2023/10/12 10:59:42;;;;;;;221.80;210.07;;;22.50;99.90;;;;;;4941068;29;20023;-70
2023/10/12 11:02:11;;;;;;;263.20;249.57;;;22.50;99.90;;;;;;4954748;28;20396;-70
2023/10/12 11:07:15;;;;;;;215.98;205.07;;;22.60;99.90;;;;;;4970700;28;20031;-70
2023/10/12 11:10:05;;;;;;;241.48;229.02;;;22.70;99.90;;;;;;4974821;28;20031;-70
2023/10/12 11:12:32;;;;;;;218.00;206.32;;;22.80;99.90;;;;;;4968126;28;20039;-70
2023/10/12 11:15:00;;;;;;;299.70;283.55;;;22.80;99.90;;;;;;4956221;28;20039;-70
2023/10/12 11:17:30;;;;;;;309.50;292.40;;;22.90;99.90;;;;;;4970997;28;20046;-70
2023/10/12 11:20:00;;;;;;;286.05;270.73;;;23.10;99.90;;;;;;4958234;28;20039;-70
2023/10/12 11:22:26;;;;;;;277.70;263.02;;;23.10;99.90;;;;;;4975143;28;20031;-70
2023/10/12 11:24:57;;;;;;;267.35;252.88;;;23.10;99.90;;;;;;4974628;28;20023;-70
2023/10/12 11:27:32;;;;;;;285.40;270.10;;;23.10;99.90;;;;;;4957083;28;20043;-71
2023/10/12 11:30:00;;;;;;;268.52;254.23;;;23.10;99.90;;;;;;4955096;29;20038;-71
2023/10/12 11:32:28;;;;;;;273.75;259.38;;;23.10;99.90;;;;;;4954785;28;20511;-70
2023/10/12 11:34:59;;;;;;;277.30;262.45;;;23.10;99.90;;;;;;4954607;29;20043;-70
2023/10/12 11:37:29;;;;;;;270.95;256.70;;;23.10;99.90;;;;;;4954035;28;20062;-71
2023/10/12 11:39:57;;;;;;;274.38;260.00;;;23.20;99.90;;;;;;4956277;28;20043;-70
2023/10/12 11:42:23;;;;;;;281.92;267.02;;;23.10;99.90;;;;;;4938094;28;20048;-71
2023/10/12 11:44:51;;;;;;;278.08;262.92;;;23.10;99.90;;;;;;4949429;29;20032;-70
2023/10/12 11:47:17;;;;;;;264.27;250.50;;;23.10;99.90;;;;;;4938469;28;20059;-70
2023/10/12 11:49:55;;;;;;;273.65;259.20;;;23.10;99.90;;;;;;4936630;29;20039;-71
2023/10/12 11:52:32;;;;;;;281.02;266.15;;;23.10;99.90;;;;;;4953919;29;20373;-71
2023/10/12 11:55:20;;;;;;;277.67;263.15;;;23.20;99.90;;;;;;4955607;28;20058;-71
2023/10/12 11:57:59;;;;;;;274.63;260.05;;;23.30;99.90;;;;;;4943213;28;20055;-71
2023/10/12 12:00:36;;;;;;;274.65;260.52;;;23.40;99.90;;;;;;4936326;28;20039;-70
2023/10/12 12:03:03;;;;;;;317.13;299.90;;;23.60;99.90;;;;;;4936613;29;20039;-70
2023/10/12 12:05:39;;;;;;;312.67;296.05;;;23.70;99.90;;;;;;4936101;29;20371;-70
2023/10/12 12:08:06;;;;;;;305.27;289.80;;;23.90;99.90;;;;;;4955367;28;20050;-71
2023/10/12 12:10:44;;;;;;;332.48;315.15;;;23.90;99.90;;;;;;4952107;28;20048;-69
2023/10/12 12:13:12;;;;;;;311.60;295.20;;;23.90;99.90;;;;;;4936046;29;20044;-71
2023/10/12 12:15:43;;;;;;;318.90;302.25;;;23.90;99.90;;;;;;4935005;29;20043;-70
2023/10/12 12:18:14;;;;;;;319.58;302.85;;;23.80;99.90;;;;;;4955214;29;20062;-70
2023/10/12 12:20:43;;;;;;;308.02;291.80;;;23.80;99.90;;;;;;4949543;29;20046;-70
2023/10/12 12:23:13;;;;;;;310.15;294.13;;;23.80;99.90;;;;;;4936514;29;20043;-71
2023/10/12 12:25:39;;;;;;;324.88;307.60;;;23.80;99.90;;;;;;4935623;29;20035;-71
2023/10/12 12:28:07;;;;;;;332.40;314.67;;;23.90;99.90;;;;;;4934850;29;20043;-70
2023/10/12 12:30:39;;;;;;;333.45;316.05;;;23.90;99.90;;;;;;4941132;28;20542;-70
2023/10/12 12:33:08;;;;;;;323.10;306.05;;;23.90;99.90;;;;;;4973480;28;20030;-70
2023/10/12 12:35:39;;;;;;;337.73;319.98;;;23.90;99.90;;;;;;4970548;28;20034;-70
2023/10/12 12:38:22;;;;;;;338.75;321.05;;;24.00;99.90;;;;;;4966663;28;20047;-70
2023/10/12 12:40:49;;;;;;;337.88;319.70;;;24.00;99.90;;;;;;4968367;28;20031;-70
2023/10/12 12:43:15;;;;;;;341.40;323.60;;;24.10;99.90;;;;;;4956289;28;20042;-70
2023/10/12 12:45:41;;;;;;;357.52;338.48;;;24.10;99.90;;;;;;4967962;28;20031;-70
2023/10/12 12:48:07;;;;;;;328.75;311.45;;;24.20;99.90;;;;;;4954946;29;20425;-70
2023/10/12 12:50:33;;;;;;;325.63;308.38;;;24.20;99.90;;;;;;4958762;28;20034;-70
2023/10/12 12:53:00;;;;;;;321.70;305.17;;;24.20;99.90;;;;;;4974074;28;20042;-70
2023/10/12 12:55:28;;;;;;;321.65;304.77;;;24.20;99.90;;;;;;4958323;28;20031;-70
2023/10/12 12:57:58;;;;;;;331.88;314.70;;;24.20;99.90;;;;;;4960923;28;20039;-70
2023/10/12 13:00:25;;;;;;;324.80;307.27;;;24.20;99.90;;;;;;4970397;28;20035;-70
2023/10/12 13:02:51;;;;;;;313.00;296.75;;;24.20;99.90;;;;;;4967104;28;20023;-70
2023/10/12 13:05:17;;;;;;;337.50;319.58;;;24.30;99.90;;;;;;4968866;28;20042;-70
2023/10/12 13:07:46;;;;;;;364.75;345.80;;;24.30;99.90;;;;;;4966718;28;20039;-70
2023/10/12 13:10:12;;;;;;;335.65;318.27;;;24.30;99.90;;;;;;4971850;28;20484;-70
2023/10/12 13:12:40;;;;;;;370.83;351.35;;;24.40;99.90;;;;;;4954391;28;20396;-70
2023/10/12 13:15:10;;;;;;;380.40;360.25;;;24.40;99.90;;;;;;4964775;28;20034;-70
2023/10/12 13:17:37;;;;;;;374.83;355.05;;;24.50;99.90;;;;;;4967757;28;20078;-70
2023/10/12 13:20:04;;;;;;;367.95;348.67;;;24.50;99.90;;;;;;4969210;28;20034;-70
2023/10/12 13:22:30;;;;;;;406.60;385.40;;;24.50;99.90;;;;;;4969212;28;20042;-71
2023/10/12 13:24:59;;;;;;;390.35;370.10;;;24.60;99.90;;;;;;4952961;28;20039;-70
2023/10/12 13:27:27;;;;;;;397.48;376.83;;;24.50;99.90;;;;;;4954491;28;20058;-70
2023/10/12 13:29:59;;;;;;;384.13;363.65;;;24.50;99.90;;;;;;4953257;29;20027;-70
2023/10/12 13:32:26;;;;;;;409.48;387.75;;;24.50;99.90;;;;;;4952389;28;20338;-70
2023/10/12 13:34:57;;;;;;;397.45;376.55;;;24.50;99.90;;;;;;4953934;28;20035;-70
2023/10/12 13:37:30;;;;;;;408.48;386.48;;;24.40;99.90;;;;;;4961559;28;20039;-70
2023/10/12 13:39:57;;;;;;;382.65;362.55;;;24.40;99.90;;;;;;4971914;28;20498;-70
2023/10/12 13:42:23;;;;;;;383.05;362.55;;;24.40;99.90;;;;;;4955313;28;20385;-71
2023/10/12 13:44:50;;;;;;;361.38;342.30;;;24.30;99.90;;;;;;4936900;29;20030;-70
2023/10/12 13:47:16;;;;;;;352.27;333.67;;;24.30;99.90;;;;;;4941613;28;20035;-70
2023/10/12 13:49:42;;;;;;;339.58;321.88;;;24.30;99.90;;;;;;4973299;28;20042;-70
2023/10/12 13:52:12;;;;;;;344.58;326.80;;;24.20;99.90;;;;;;4971590;28;20049;-70
2023/10/12 13:54:45;;;;;;;331.15;314.30;;;24.20;99.90;;;;;;4971886;28;20082;-70
2023/10/12 13:57:14;;;;;;;323.08;306.35;;;24.20;99.90;;;;;;4958116;28;20477;-70
2023/10/12 13:59:45;;;;;;;313.40;296.67;;;24.20;99.90;;;;;;4953823;29;20038;-70
2023/10/12 14:02:12;;;;;;;329.52;311.83;;;24.20;99.90;;;;;;4952110;28;20039;-70
2023/10/12 14:04:40;;;;;;;333.63;316.45;;;24.20;99.90;;;;;;4954361;28;20052;-70
2023/10/12 14:07:07;;;;;;;319.88;302.65;;;24.20;99.90;;;;;;4957259;28;20027;-70
2023/10/12 14:09:33;;;;;;;327.65;310.42;;;24.30;99.90;;;;;;4971871;28;20031;-71
2023/10/12 14:11:59;;;;;;;350.40;331.65;;;24.30;99.90;;;;;;4956842;28;20050;-71
2023/10/12 14:14:25;;;;;;;345.48;327.13;;;24.30;99.90;;;;;;4959297;28;20472;-71
2023/10/12 14:16:51;;;;;;;370.02;350.70;;;24.40;99.90;;;;;;4958744;28;20048;-71
2023/10/12 14:19:22;;;;;;;351.63;332.90;;;24.50;99.90;;;;;;4957608;29;20035;-71
2023/10/12 14:21:52;;;;;;;363.33;344.35;;;24.50;99.90;;;;;;4957528;28;20039;-71
2023/10/12 14:24:23;;;;;;;353.40;334.53;;;24.60;99.90;;;;;;4959339;28;20047;-70
2023/10/12 14:26:50;;;;;;;;;;;24.60;99.90;;;;;;4965581;28;20287;-71
2023/10/12 14:29:18;;;;;;;320.33;303.45;;;24.60;99.90;;;;;;4957498;29;19913;-71
2023/10/12 14:31:47;;;;;;;355.02;336.00;;;24.60;99.90;;;;;;4957620;28;20035;-71
2023/10/12 14:34:14;;;;;;;391.75;371.15;;;24.60;99.90;;;;;;4958644;28;20039;-71